sensor_id;sensor_type;location;lat;lon;timestamp;P1;durP1;ratioP1;P2;durP2;ratioP2
33066;SDS011;19428;49.024;8.366;2022-08-19T00:01:35;37.67;;;36.17;;
33066;SDS011;19428;49.024;8.366;2022-08-19T00:04:04;39.40;;;37.80;;
33066;SDS011;19428;49.024;8.366;2022-08-19T00:06:33;39.58;;;37.88;;
33066;SDS011;19428;49.024;8.366;2022-08-19T00:09:00;42.13;;;40.42;;
33066;SDS011;19428;49.024;8.366;2022-08-19T00:11:26;40.88;;;39.22;;
33066;SDS011;19428;49.024;8.366;2022-08-19T00:13:53;42.95;;;41.15;;
33066;SDS011;19428;49.024;8.366;2022-08-19T00:16:21;41.13;;;39.42;;
33066;SDS011;19428;49.024;8.366;2022-08-19T00:18:47;41.78;;;40.08;;
33066;SDS011;19428;49.024;8.366;2022-08-19T00:21:13;42.70;;;40.95;;
33066;SDS011;19428;49.024;8.366;2022-08-19T00:23:39;40.42;;;38.83;;
33066;SDS011;19428;49.024;8.366;2022-08-19T00:26:06;42.58;;;40.88;;
33066;SDS011;19428;49.024;8.366;2022-08-19T00:28:32;39.15;;;37.58;;
33066;SDS011;19428;49.024;8.366;2022-08-19T00:31:00;37.03;;;35.53;;
33066;SDS011;19428;49.024;8.366;2022-08-19T00:33:26;34.22;;;32.85;;
33066;SDS011;19428;49.024;8.366;2022-08-19T00:35:52;32.70;;;31.25;;
33066;SDS011;19428;49.024;8.366;2022-08-19T00:38:20;34.42;;;33.03;;
33066;SDS011;19428;49.024;8.366;2022-08-19T00:40:47;34.83;;;33.28;;
33066;SDS011;19428;49.024;8.366;2022-08-19T00:43:14;32.83;;;31.52;;
33066;SDS011;19428;49.024;8.366;2022-08-19T00:45:45;31.63;;;30.38;;
33066;SDS011;19428;49.024;8.366;2022-08-19T00:48:12;30.17;;;28.98;;
33066;SDS011;19428;49.024;8.366;2022-08-19T00:50:39;28.20;;;27.10;;
33066;SDS011;19428;49.024;8.366;2022-08-19T00:53:08;24.00;;;23.10;;
33066;SDS011;19428;49.024;8.366;2022-08-19T00:55:37;29.77;;;28.58;;
33066;SDS011;19428;49.024;8.366;2022-08-19T00:58:05;29.17;;;28.05;;
33066;SDS011;19428;49.024;8.366;2022-08-19T01:00:35;33.25;;;31.80;;
33066;SDS011;19428;49.024;8.366;2022-08-19T01:03:03;30.63;;;29.42;;
33066;SDS011;19428;49.024;8.366;2022-08-19T01:05:31;28.30;;;27.17;;
33066;SDS011;19428;49.024;8.366;2022-08-19T01:07:58;28.67;;;27.27;;
33066;SDS011;19428;49.024;8.366;2022-08-19T01:10:29;29.48;;;28.30;;
33066;SDS011;19428;49.024;8.366;2022-08-19T01:12:58;32.65;;;31.35;;
33066;SDS011;19428;49.024;8.366;2022-08-19T01:15:31;30.42;;;29.20;;
33066;SDS011;19428;49.024;8.366;2022-08-19T01:18:00;30.30;;;29.05;;
33066;SDS011;19428;49.024;8.366;2022-08-19T01:20:29;31.00;;;29.75;;
33066;SDS011;19428;49.024;8.366;2022-08-19T01:22:56;33.70;;;32.35;;
33066;SDS011;19428;49.024;8.366;2022-08-19T01:25:27;39.70;;;38.08;;
33066;SDS011;19428;49.024;8.366;2022-08-19T01:27:57;38.53;;;36.97;;
33066;SDS011;19428;49.024;8.366;2022-08-19T01:30:27;41.58;;;39.88;;
33066;SDS011;19428;49.024;8.366;2022-08-19T01:32:55;43.78;;;41.97;;
33066;SDS011;19428;49.024;8.366;2022-08-19T01:35:22;43.88;;;42.08;;
33066;SDS011;19428;49.024;8.366;2022-08-19T01:38:03;43.20;;;41.08;;
33066;SDS011;19428;49.024;8.366;2022-08-19T01:40:34;41.97;;;40.28;;
33066;SDS011;19428;49.024;8.366;2022-08-19T01:43:03;40.65;;;39.05;;
33066;SDS011;19428;49.024;8.366;2022-08-19T01:45:30;46.42;;;44.53;;
33066;SDS011;19428;49.024;8.366;2022-08-19T01:47:57;43.20;;;41.50;;
33066;SDS011;19428;49.024;8.366;2022-08-19T01:50:23;46.95;;;45.00;;
33066;SDS011;19428;49.024;8.366;2022-08-19T01:52:50;44.50;;;42.67;;
33066;SDS011;19428;49.024;8.366;2022-08-19T01:55:18;48.17;;;46.22;;
33066;SDS011;19428;49.024;8.366;2022-08-19T01:57:50;46.95;;;45.05;;
33066;SDS011;19428;49.024;8.366;2022-08-19T02:00:19;53.63;;;50.80;;
33066;SDS011;19428;49.024;8.366;2022-08-19T02:02:47;53.35;;;51.05;;
33066;SDS011;19428;49.024;8.366;2022-08-19T02:05:12;54.42;;;52.17;;
33066;SDS011;19428;49.024;8.366;2022-08-19T02:07:39;55.67;;;53.30;;
33066;SDS011;19428;49.024;8.366;2022-08-19T02:10:07;50.60;;;48.45;;
33066;SDS011;19428;49.024;8.366;2022-08-19T02:12:35;53.92;;;51.65;;
33066;SDS011;19428;49.024;8.366;2022-08-19T02:15:01;49.75;;;47.72;;
33066;SDS011;19428;49.024;8.366;2022-08-19T02:17:28;50.22;;;48.13;;
33066;SDS011;19428;49.024;8.366;2022-08-19T02:19:54;51.13;;;49.03;;
33066;SDS011;19428;49.024;8.366;2022-08-19T02:22:21;51.10;;;48.97;;
33066;SDS011;19428;49.024;8.366;2022-08-19T02:24:47;53.65;;;51.38;;
33066;SDS011;19428;49.024;8.366;2022-08-19T02:27:13;48.88;;;46.85;;
33066;SDS011;19428;49.024;8.366;2022-08-19T02:29:39;51.58;;;49.47;;
33066;SDS011;19428;49.024;8.366;2022-08-19T02:32:05;53.08;;;50.90;;
33066;SDS011;19428;49.024;8.366;2022-08-19T02:34:31;53.22;;;50.92;;
33066;SDS011;19428;49.024;8.366;2022-08-19T02:36:57;52.55;;;50.35;;
33066;SDS011;19428;49.024;8.366;2022-08-19T02:39:23;50.95;;;48.80;;
33066;SDS011;19428;49.024;8.366;2022-08-19T02:41:48;51.58;;;49.38;;
33066;SDS011;19428;49.024;8.366;2022-08-19T02:44:15;51.80;;;49.65;;
33066;SDS011;19428;49.024;8.366;2022-08-19T02:46:41;54.22;;;51.97;;
33066;SDS011;19428;49.024;8.366;2022-08-19T02:49:08;52.55;;;50.35;;
33066;SDS011;19428;49.024;8.366;2022-08-19T02:51:38;54.25;;;52.00;;
33066;SDS011;19428;49.024;8.366;2022-08-19T02:54:05;52.03;;;49.83;;
33066;SDS011;19428;49.024;8.366;2022-08-19T02:56:36;53.90;;;51.53;;
33066;SDS011;19428;49.024;8.366;2022-08-19T02:59:03;52.03;;;49.92;;
33066;SDS011;19428;49.024;8.366;2022-08-19T03:01:33;57.08;;;54.47;;
33066;SDS011;19428;49.024;8.366;2022-08-19T03:04:00;51.95;;;49.75;;
33066;SDS011;19428;49.024;8.366;2022-08-19T03:06:28;52.83;;;50.63;;
33066;SDS011;19428;49.024;8.366;2022-08-19T03:08:54;51.25;;;49.15;;
33066;SDS011;19428;49.024;8.366;2022-08-19T03:11:21;54.72;;;52.42;;
33066;SDS011;19428;49.024;8.366;2022-08-19T03:13:49;53.45;;;51.25;;
33066;SDS011;19428;49.024;8.366;2022-08-19T03:16:15;54.85;;;52.58;;
33066;SDS011;19428;49.024;8.366;2022-08-19T03:18:42;50.78;;;48.65;;
33066;SDS011;19428;49.024;8.366;2022-08-19T03:21:08;52.75;;;50.55;;
33066;SDS011;19428;49.024;8.366;2022-08-19T03:23:33;55.22;;;52.90;;
33066;SDS011;19428;49.024;8.366;2022-08-19T03:26:02;53.45;;;51.17;;
33066;SDS011;19428;49.024;8.366;2022-08-19T03:28:30;50.05;;;48.00;;
33066;SDS011;19428;49.024;8.366;2022-08-19T03:31:00;54.00;;;51.60;;
33066;SDS011;19428;49.024;8.366;2022-08-19T03:33:28;57.83;;;55.42;;
33066;SDS011;19428;49.024;8.366;2022-08-19T03:35:59;54.28;;;51.97;;
33066;SDS011;19428;49.024;8.366;2022-08-19T03:38:27;54.67;;;52.38;;
33066;SDS011;19428;49.024;8.366;2022-08-19T03:40:53;57.75;;;55.20;;
33066;SDS011;19428;49.024;8.366;2022-08-19T03:43:18;53.88;;;51.47;;
33066;SDS011;19428;49.024;8.366;2022-08-19T03:45:44;53.97;;;51.78;;
33066;SDS011;19428;49.024;8.366;2022-08-19T03:48:09;56.67;;;54.28;;
33066;SDS011;19428;49.024;8.366;2022-08-19T03:50:38;61.33;;;58.65;;
33066;SDS011;19428;49.024;8.366;2022-08-19T03:53:05;59.17;;;56.67;;
33066;SDS011;19428;49.024;8.366;2022-08-19T03:55:31;53.83;;;51.60;;
33066;SDS011;19428;49.024;8.366;2022-08-19T03:57:56;58.97;;;56.50;;
33066;SDS011;19428;49.024;8.366;2022-08-19T04:00:22;58.08;;;55.60;;
33066;SDS011;19428;49.024;8.366;2022-08-19T04:02:48;59.28;;;56.38;;
33066;SDS011;19428;49.024;8.366;2022-08-19T04:05:13;59.58;;;57.03;;
33066;SDS011;19428;49.024;8.366;2022-08-19T04:07:39;61.83;;;59.20;;
33066;SDS011;19428;49.024;8.366;2022-08-19T04:10:05;61.08;;;58.38;;
33066;SDS011;19428;49.024;8.366;2022-08-19T04:12:31;64.55;;;61.85;;
33066;SDS011;19428;49.024;8.366;2022-08-19T04:14:57;62.28;;;59.67;;
33066;SDS011;19428;49.024;8.366;2022-08-19T04:17:23;61.35;;;58.70;;
33066;SDS011;19428;49.024;8.366;2022-08-19T04:19:49;62.55;;;59.88;;
33066;SDS011;19428;49.024;8.366;2022-08-19T04:22:14;57.80;;;55.33;;
33066;SDS011;19428;49.024;8.366;2022-08-19T04:24:40;59.58;;;57.08;;
33066;SDS011;19428;49.024;8.366;2022-08-19T04:27:06;59.75;;;57.25;;
33066;SDS011;19428;49.024;8.366;2022-08-19T04:29:32;61.72;;;59.08;;
33066;SDS011;19428;49.024;8.366;2022-08-19T04:31:57;59.65;;;57.05;;
33066;SDS011;19428;49.024;8.366;2022-08-19T04:34:25;61.60;;;59.00;;
33066;SDS011;19428;49.024;8.366;2022-08-19T04:36:53;58.05;;;55.60;;
33066;SDS011;19428;49.024;8.366;2022-08-19T04:39:21;57.00;;;54.60;;
33066;SDS011;19428;49.024;8.366;2022-08-19T04:42:12;58.22;;;55.72;;
33066;SDS011;19428;49.024;8.366;2022-08-19T04:44:56;55.35;;;53.03;;
33066;SDS011;19428;49.024;8.366;2022-08-19T04:47:23;59.28;;;56.78;;
33066;SDS011;19428;49.024;8.366;2022-08-19T04:49:49;56.58;;;54.17;;
33066;SDS011;19428;49.024;8.366;2022-08-19T04:52:14;53.72;;;51.47;;
33066;SDS011;19428;49.024;8.366;2022-08-19T04:54:40;51.55;;;49.25;;
33066;SDS011;19428;49.024;8.366;2022-08-19T04:57:07;54.67;;;52.38;;
33066;SDS011;19428;49.024;8.366;2022-08-19T04:59:35;55.30;;;52.67;;
33066;SDS011;19428;49.024;8.366;2022-08-19T05:02:02;55.88;;;53.38;;
33066;SDS011;19428;49.024;8.366;2022-08-19T05:04:29;59.88;;;57.13;;
33066;SDS011;19428;49.024;8.366;2022-08-19T05:06:58;56.33;;;53.92;;
33066;SDS011;19428;49.024;8.366;2022-08-19T05:09:25;54.83;;;52.33;;
33066;SDS011;19428;49.024;8.366;2022-08-19T05:11:51;55.60;;;53.28;;
33066;SDS011;19428;49.024;8.366;2022-08-19T05:14:18;58.13;;;55.60;;
33066;SDS011;19428;49.024;8.366;2022-08-19T05:16:45;47.70;;;45.75;;
33066;SDS011;19428;49.024;8.366;2022-08-19T05:19:11;36.50;;;35.00;;
33066;SDS011;19428;49.024;8.366;2022-08-19T05:21:55;32.25;;;30.92;;
33066;SDS011;19428;49.024;8.366;2022-08-19T05:24:39;26.13;;;24.98;;
33066;SDS011;19428;49.024;8.366;2022-08-19T05:27:05;24.48;;;23.58;;
33066;SDS011;19428;49.024;8.366;2022-08-19T05:29:31;21.30;;;20.48;;
33066;SDS011;19428;49.024;8.366;2022-08-19T05:31:59;23.45;;;18.40;;
33066;SDS011;19428;49.024;8.366;2022-08-19T05:34:25;32.15;;;19.17;;
33066;SDS011;19428;49.024;8.366;2022-08-19T05:36:53;14.00;;;13.48;;
33066;SDS011;19428;49.024;8.366;2022-08-19T05:39:24;13.15;;;12.70;;
33066;SDS011;19428;49.024;8.366;2022-08-19T05:41:57;12.27;;;11.88;;
33066;SDS011;19428;49.024;8.366;2022-08-19T05:44:25;17.67;;;14.20;;
33066;SDS011;19428;49.024;8.366;2022-08-19T05:46:56;14.23;;;13.75;;
33066;SDS011;19428;49.024;8.366;2022-08-19T05:49:23;17.63;;;16.63;;
33066;SDS011;19428;49.024;8.366;2022-08-19T05:51:50;19.90;;;19.08;;
33066;SDS011;19428;49.024;8.366;2022-08-19T05:54:16;17.05;;;16.45;;
33066;SDS011;19428;49.024;8.366;2022-08-19T05:56:42;16.58;;;15.93;;
33066;SDS011;19428;49.024;8.366;2022-08-19T05:59:09;18.05;;;17.38;;
33066;SDS011;19428;49.024;8.366;2022-08-19T06:01:40;12.05;;;11.65;;
33066;SDS011;19428;49.024;8.366;2022-08-19T06:04:07;11.43;;;11.02;;
33066;SDS011;19428;49.024;8.366;2022-08-19T06:06:33;10.50;;;10.15;;
33066;SDS011;19428;49.024;8.366;2022-08-19T06:09:01;11.93;;;11.52;;
33066;SDS011;19428;49.024;8.366;2022-08-19T06:14:00;14.70;;;14.15;;
33066;SDS011;19428;49.024;8.366;2022-08-19T06:16:28;14.27;;;13.80;;
33066;SDS011;19428;49.024;8.366;2022-08-19T06:18:56;12.15;;;11.77;;
33066;SDS011;19428;49.024;8.366;2022-08-19T06:21:25;20.85;;;12.57;;
33066;SDS011;19428;49.024;8.366;2022-08-19T06:23:52;9.95;;;9.65;;
33066;SDS011;19428;49.024;8.366;2022-08-19T06:26:19;8.27;;;8.07;;
33066;SDS011;19428;49.024;8.366;2022-08-19T06:28:45;9.57;;;9.27;;
33066;SDS011;19428;49.024;8.366;2022-08-19T06:31:14;9.55;;;9.25;;
33066;SDS011;19428;49.024;8.366;2022-08-19T06:33:45;9.57;;;9.18;;
33066;SDS011;19428;49.024;8.366;2022-08-19T06:38:43;7.57;;;7.38;;
33066;SDS011;19428;49.024;8.366;2022-08-19T06:41:08;10.57;;;10.18;;
33066;SDS011;19428;49.024;8.366;2022-08-19T06:43:35;11.38;;;11.02;;
33066;SDS011;19428;49.024;8.366;2022-08-19T06:46:01;10.27;;;9.98;;
33066;SDS011;19428;49.024;8.366;2022-08-19T06:48:28;10.18;;;9.88;;
33066;SDS011;19428;49.024;8.366;2022-08-19T06:50:54;10.07;;;9.77;;
33066;SDS011;19428;49.024;8.366;2022-08-19T06:53:20;11.98;;;11.35;;
33066;SDS011;19428;49.024;8.366;2022-08-19T06:55:46;9.48;;;9.13;;
33066;SDS011;19428;49.024;8.366;2022-08-19T06:58:12;9.30;;;9.00;;
33066;SDS011;19428;49.024;8.366;2022-08-19T07:00:38;8.55;;;8.35;;
33066;SDS011;19428;49.024;8.366;2022-08-19T07:03:03;8.25;;;8.05;;
33066;SDS011;19428;49.024;8.366;2022-08-19T07:05:29;7.13;;;6.93;;
33066;SDS011;19428;49.024;8.366;2022-08-19T07:07:54;9.00;;;8.70;;
33066;SDS011;19428;49.024;8.366;2022-08-19T07:10:21;7.90;;;7.68;;
33066;SDS011;19428;49.024;8.366;2022-08-19T07:12:47;7.00;;;6.70;;
33066;SDS011;19428;49.024;8.366;2022-08-19T07:15:13;5.95;;;5.82;;
33066;SDS011;19428;49.024;8.366;2022-08-19T07:17:40;6.90;;;6.60;;
33066;SDS011;19428;49.024;8.366;2022-08-19T07:20:08;6.57;;;6.38;;
33066;SDS011;19428;49.024;8.366;2022-08-19T07:22:34;5.55;;;5.45;;
33066;SDS011;19428;49.024;8.366;2022-08-19T07:25:02;5.43;;;5.32;;
33066;SDS011;19428;49.024;8.366;2022-08-19T07:27:30;4.63;;;4.53;;
33066;SDS011;19428;49.024;8.366;2022-08-19T07:29:56;5.13;;;4.93;;
33066;SDS011;19428;49.024;8.366;2022-08-19T07:32:21;4.80;;;4.70;;
33066;SDS011;19428;49.024;8.366;2022-08-19T07:34:47;5.07;;;4.97;;
33066;SDS011;19428;49.024;8.366;2022-08-19T07:37:13;4.63;;;4.53;;
33066;SDS011;19428;49.024;8.366;2022-08-19T07:39:38;4.20;;;4.10;;
33066;SDS011;19428;49.024;8.366;2022-08-19T07:42:06;4.50;;;4.40;;
33066;SDS011;19428;49.024;8.366;2022-08-19T07:44:35;4.63;;;4.43;;
33066;SDS011;19428;49.024;8.366;2022-08-19T07:47:02;3.58;;;3.50;;
33066;SDS011;19428;49.024;8.366;2022-08-19T07:49:29;3.00;;;3.00;;
33066;SDS011;19428;49.024;8.366;2022-08-19T07:52:00;4.47;;;4.32;;
33066;SDS011;19428;49.024;8.366;2022-08-19T07:54:30;3.60;;;3.50;;
33066;SDS011;19428;49.024;8.366;2022-08-19T07:56:59;3.42;;;3.33;;
33066;SDS011;19428;49.024;8.366;2022-08-19T07:59:25;2.92;;;2.92;;
33066;SDS011;19428;49.024;8.366;2022-08-19T08:01:53;3.35;;;3.33;;
33066;SDS011;19428;49.024;8.366;2022-08-19T08:04:19;3.42;;;3.33;;
33066;SDS011;19428;49.024;8.366;2022-08-19T08:07:03;2.90;;;2.90;;
33066;SDS011;19428;49.024;8.366;2022-08-19T08:09:49;3.42;;;3.22;;
33066;SDS011;19428;49.024;8.366;2022-08-19T08:12:16;3.97;;;3.88;;
33066;SDS011;19428;49.024;8.366;2022-08-19T08:14:46;4.57;;;4.28;;
33066;SDS011;19428;49.024;8.366;2022-08-19T08:17:15;3.75;;;3.65;;
33066;SDS011;19428;49.024;8.366;2022-08-19T08:19:42;2.90;;;2.90;;
33066;SDS011;19428;49.024;8.366;2022-08-19T08:22:09;3.53;;;3.42;;
33066;SDS011;19428;49.024;8.366;2022-08-19T08:24:55;3.42;;;3.40;;
33066;SDS011;19428;49.024;8.366;2022-08-19T08:27:23;3.70;;;3.60;;
33066;SDS011;19428;49.024;8.366;2022-08-19T08:29:49;4.45;;;4.35;;
33066;SDS011;19428;49.024;8.366;2022-08-19T08:32:15;5.18;;;5.05;;
33066;SDS011;19428;49.024;8.366;2022-08-19T08:34:41;4.50;;;4.40;;
33066;SDS011;19428;49.024;8.366;2022-08-19T08:37:07;5.50;;;5.30;;
33066;SDS011;19428;49.024;8.366;2022-08-19T08:39:33;5.30;;;5.20;;
33066;SDS011;19428;49.024;8.366;2022-08-19T08:42:07;5.10;;;4.95;;
33066;SDS011;19428;49.024;8.366;2022-08-19T08:44:59;4.72;;;4.63;;
33066;SDS011;19428;49.024;8.366;2022-08-19T08:47:29;4.50;;;4.40;;
33066;SDS011;19428;49.024;8.366;2022-08-19T08:50:13;4.47;;;4.38;;
33066;SDS011;19428;49.024;8.366;2022-08-19T08:52:46;5.72;;;5.63;;
33066;SDS011;19428;49.024;8.366;2022-08-19T08:55:18;6.38;;;6.18;;
33066;SDS011;19428;49.024;8.366;2022-08-19T09:00:16;5.60;;;5.50;;
33066;SDS011;19428;49.024;8.366;2022-08-19T09:02:44;5.25;;;5.15;;
33066;SDS011;19428;49.024;8.366;2022-08-19T09:05:10;4.90;;;4.80;;
33066;SDS011;19428;49.024;8.366;2022-08-19T09:07:41;5.63;;;5.15;;
33066;SDS011;19428;49.024;8.366;2022-08-19T09:10:22;4.90;;;4.80;;
33066;SDS011;19428;49.024;8.366;2022-08-19T09:15:22;4.15;;;4.05;;
33066;SDS011;19428;49.024;8.366;2022-08-19T09:17:54;3.97;;;3.88;;
33066;SDS011;19428;49.024;8.366;2022-08-19T09:20:26;4.63;;;4.53;;
33066;SDS011;19428;49.024;8.366;2022-08-19T09:22:52;4.07;;;3.97;;
33066;SDS011;19428;49.024;8.366;2022-08-19T09:25:19;4.63;;;4.53;;
33066;SDS011;19428;49.024;8.366;2022-08-19T09:27:49;4.90;;;4.80;;
33066;SDS011;19428;49.024;8.366;2022-08-19T09:30:19;5.78;;;5.68;;
33066;SDS011;19428;49.024;8.366;2022-08-19T09:32:48;5.60;;;5.50;;
33066;SDS011;19428;49.024;8.366;2022-08-19T09:35:17;5.25;;;5.15;;
33066;SDS011;19428;49.024;8.366;2022-08-19T09:37:46;5.57;;;5.47;;
33066;SDS011;19428;49.024;8.366;2022-08-19T09:40:14;5.35;;;5.25;;
33066;SDS011;19428;49.024;8.366;2022-08-19T09:42:40;4.85;;;4.75;;
33066;SDS011;19428;49.024;8.366;2022-08-19T09:45:08;4.97;;;4.88;;
33066;SDS011;19428;49.024;8.366;2022-08-19T09:47:35;5.03;;;4.93;;
33066;SDS011;19428;49.024;8.366;2022-08-19T09:50:06;4.78;;;4.68;;
33066;SDS011;19428;49.024;8.366;2022-08-19T09:52:33;4.45;;;4.35;;
33066;SDS011;19428;49.024;8.366;2022-08-19T09:55:01;5.60;;;5.50;;
33066;SDS011;19428;49.024;8.366;2022-08-19T09:57:28;5.28;;;5.18;;
33066;SDS011;19428;49.024;8.366;2022-08-19T09:59:54;4.82;;;4.72;;
33066;SDS011;19428;49.024;8.366;2022-08-19T10:02:19;8.30;;;8.10;;
33066;SDS011;19428;49.024;8.366;2022-08-19T10:04:45;9.52;;;9.23;;
33066;SDS011;19428;49.024;8.366;2022-08-19T10:07:29;5.85;;;5.75;;
33066;SDS011;19428;49.024;8.366;2022-08-19T10:09:58;5.13;;;5.03;;
33066;SDS011;19428;49.024;8.366;2022-08-19T10:12:23;7.03;;;6.82;;
33066;SDS011;19428;49.024;8.366;2022-08-19T10:14:49;5.90;;;5.80;;
33066;SDS011;19428;49.024;8.366;2022-08-19T10:17:16;3.83;;;3.72;;
33066;SDS011;19428;49.024;8.366;2022-08-19T10:19:42;5.13;;;5.03;;
33066;SDS011;19428;49.024;8.366;2022-08-19T10:22:08;4.00;;;3.90;;
33066;SDS011;19428;49.024;8.366;2022-08-19T10:24:38;3.90;;;3.80;;
33066;SDS011;19428;49.024;8.366;2022-08-19T10:27:04;3.30;;;3.25;;
33066;SDS011;19428;49.024;8.366;2022-08-19T10:29:31;3.10;;;3.10;;
33066;SDS011;19428;49.024;8.366;2022-08-19T10:32:00;3.25;;;3.15;;
33066;SDS011;19428;49.024;8.366;2022-08-19T10:34:27;2.35;;;2.35;;
33066;SDS011;19428;49.024;8.366;2022-08-19T10:36:53;2.60;;;2.60;;
33066;SDS011;19428;49.024;8.366;2022-08-19T10:39:19;3.10;;;3.00;;
33066;SDS011;19428;49.024;8.366;2022-08-19T10:41:45;2.17;;;2.17;;
33066;SDS011;19428;49.024;8.366;2022-08-19T10:44:11;2.38;;;2.38;;
33066;SDS011;19428;49.024;8.366;2022-08-19T10:46:39;2.45;;;2.42;;
33066;SDS011;19428;49.024;8.366;2022-08-19T10:49:08;2.10;;;2.10;;
33066;SDS011;19428;49.024;8.366;2022-08-19T10:51:36;2.30;;;2.30;;
33066;SDS011;19428;49.024;8.366;2022-08-19T10:54:22;1.75;;;1.75;;
33066;SDS011;19428;49.024;8.366;2022-08-19T10:57:08;2.47;;;2.47;;
33066;SDS011;19428;49.024;8.366;2022-08-19T10:59:34;2.10;;;2.10;;
33066;SDS011;19428;49.024;8.366;2022-08-19T11:02:01;2.22;;;2.22;;
33066;SDS011;19428;49.024;8.366;2022-08-19T11:04:28;1.60;;;1.60;;
33066;SDS011;19428;49.024;8.366;2022-08-19T11:06:53;1.90;;;1.90;;
33066;SDS011;19428;49.024;8.366;2022-08-19T11:09:22;2.55;;;2.55;;
33066;SDS011;19428;49.024;8.366;2022-08-19T11:11:50;1.90;;;1.90;;
33066;SDS011;19428;49.024;8.366;2022-08-19T11:14:18;2.33;;;2.33;;
33066;SDS011;19428;49.024;8.366;2022-08-19T11:16:46;1.80;;;1.80;;
33066;SDS011;19428;49.024;8.366;2022-08-19T11:19:13;1.33;;;1.33;;
33066;SDS011;19428;49.024;8.366;2022-08-19T11:21:42;1.90;;;1.90;;
33066;SDS011;19428;49.024;8.366;2022-08-19T11:24:14;1.50;;;1.50;;
33066;SDS011;19428;49.024;8.366;2022-08-19T11:26:45;1.98;;;1.98;;
33066;SDS011;19428;49.024;8.366;2022-08-19T11:29:13;1.58;;;1.58;;
33066;SDS011;19428;49.024;8.366;2022-08-19T11:31:40;1.95;;;1.95;;
33066;SDS011;19428;49.024;8.366;2022-08-19T11:34:09;1.65;;;1.65;;
33066;SDS011;19428;49.024;8.366;2022-08-19T11:36:37;2.05;;;2.05;;
33066;SDS011;19428;49.024;8.366;2022-08-19T11:39:05;1.30;;;1.30;;
33066;SDS011;19428;49.024;8.366;2022-08-19T11:41:32;1.48;;;1.48;;
33066;SDS011;19428;49.024;8.366;2022-08-19T11:43:58;1.10;;;1.10;;
33066;SDS011;19428;49.024;8.366;2022-08-19T11:46:24;1.73;;;1.73;;
33066;SDS011;19428;49.024;8.366;2022-08-19T11:48:52;1.45;;;1.45;;
33066;SDS011;19428;49.024;8.366;2022-08-19T11:51:20;2.08;;;1.98;;
33066;SDS011;19428;49.024;8.366;2022-08-19T11:53:47;1.00;;;1.00;;
33066;SDS011;19428;49.024;8.366;2022-08-19T11:56:14;1.17;;;1.17;;
33066;SDS011;19428;49.024;8.366;2022-08-19T11:58:40;0.70;;;0.70;;
33066;SDS011;19428;49.024;8.366;2022-08-19T12:01:10;2.15;;;1.90;;
33066;SDS011;19428;49.024;8.366;2022-08-19T12:03:39;1.90;;;1.90;;
33066;SDS011;19428;49.024;8.366;2022-08-19T12:06:06;0.70;;;0.70;;
33066;SDS011;19428;49.024;8.366;2022-08-19T12:08:33;0.60;;;0.60;;
33066;SDS011;19428;49.024;8.366;2022-08-19T12:10:59;0.75;;;0.75;;
33066;SDS011;19428;49.024;8.366;2022-08-19T12:13:28;0.90;;;0.90;;
33066;SDS011;19428;49.024;8.366;2022-08-19T12:15:55;1.10;;;1.10;;
33066;SDS011;19428;49.024;8.366;2022-08-19T12:18:22;0.93;;;0.93;;
33066;SDS011;19428;49.024;8.366;2022-08-19T12:20:50;1.10;;;1.10;;
33066;SDS011;19428;49.024;8.366;2022-08-19T12:23:16;2.45;;;1.70;;
33066;SDS011;19428;49.024;8.366;2022-08-19T12:25:46;1.45;;;1.45;;
33066;SDS011;19428;49.024;8.366;2022-08-19T12:28:17;0.90;;;0.90;;
33066;SDS011;19428;49.024;8.366;2022-08-19T12:30:44;0.95;;;0.95;;
33066;SDS011;19428;49.024;8.366;2022-08-19T12:33:09;1.02;;;1.02;;
33066;SDS011;19428;49.024;8.366;2022-08-19T12:35:38;0.60;;;0.60;;
33066;SDS011;19428;49.024;8.366;2022-08-19T12:38:05;0.68;;;0.68;;
33066;SDS011;19428;49.024;8.366;2022-08-19T12:40:31;0.98;;;0.98;;
33066;SDS011;19428;49.024;8.366;2022-08-19T12:42:57;1.15;;;1.15;;
33066;SDS011;19428;49.024;8.366;2022-08-19T12:45:22;0.95;;;0.95;;
33066;SDS011;19428;49.024;8.366;2022-08-19T12:47:48;2.03;;;1.95;;
33066;SDS011;19428;49.024;8.366;2022-08-19T12:50:14;1.10;;;1.10;;
33066;SDS011;19428;49.024;8.366;2022-08-19T12:52:39;0.80;;;0.80;;
33066;SDS011;19428;49.024;8.366;2022-08-19T12:55:07;0.80;;;0.80;;
33066;SDS011;19428;49.024;8.366;2022-08-19T12:57:33;0.80;;;0.80;;
33066;SDS011;19428;49.024;8.366;2022-08-19T13:00:10;0.85;;;0.85;;
33066;SDS011;19428;49.024;8.366;2022-08-19T13:02:39;0.77;;;0.77;;
33066;SDS011;19428;49.024;8.366;2022-08-19T13:05:06;0.52;;;0.52;;
33066;SDS011;19428;49.024;8.366;2022-08-19T13:07:33;0.50;;;0.50;;
33066;SDS011;19428;49.024;8.366;2022-08-19T13:09:59;0.50;;;0.50;;
33066;SDS011;19428;49.024;8.366;2022-08-19T13:12:25;0.93;;;0.93;;
33066;SDS011;19428;49.024;8.366;2022-08-19T13:14:51;1.05;;;1.00;;
33066;SDS011;19428;49.024;8.366;2022-08-19T13:17:18;0.50;;;0.50;;
33066;SDS011;19428;49.024;8.366;2022-08-19T13:19:44;0.73;;;0.70;;
33066;SDS011;19428;49.024;8.366;2022-08-19T13:22:10;0.60;;;0.60;;
33066;SDS011;19428;49.024;8.366;2022-08-19T13:24:37;0.50;;;0.50;;
33066;SDS011;19428;49.024;8.366;2022-08-19T13:27:02;0.40;;;0.40;;
33066;SDS011;19428;49.024;8.366;2022-08-19T13:29:28;0.50;;;0.50;;
33066;SDS011;19428;49.024;8.366;2022-08-19T13:32:29;0.40;;;0.40;;
33066;SDS011;19428;49.024;8.366;2022-08-19T13:35:13;0.63;;;0.63;;
33066;SDS011;19428;49.024;8.366;2022-08-19T13:37:39;0.40;;;0.40;;
33066;SDS011;19428;49.024;8.366;2022-08-19T13:40:10;0.43;;;0.43;;
33066;SDS011;19428;49.024;8.366;2022-08-19T13:42:43;0.50;;;0.50;;
33066;SDS011;19428;49.024;8.366;2022-08-19T13:45:12;0.50;;;0.50;;
33066;SDS011;19428;49.024;8.366;2022-08-19T13:47:39;0.60;;;0.60;;
33066;SDS011;19428;49.024;8.366;2022-08-19T13:50:08;0.40;;;0.40;;
33066;SDS011;19428;49.024;8.366;2022-08-19T13:52:36;0.45;;;0.45;;
33066;SDS011;19428;49.024;8.366;2022-08-19T13:55:02;0.40;;;0.40;;
33066;SDS011;19428;49.024;8.366;2022-08-19T13:57:29;0.73;;;0.73;;
33066;SDS011;19428;49.024;8.366;2022-08-19T13:59:55;0.43;;;0.43;;
33066;SDS011;19428;49.024;8.366;2022-08-19T14:02:22;0.32;;;0.32;;
33066;SDS011;19428;49.024;8.366;2022-08-19T14:04:48;0.40;;;0.40;;
33066;SDS011;19428;49.024;8.366;2022-08-19T14:07:13;0.45;;;0.45;;
33066;SDS011;19428;49.024;8.366;2022-08-19T14:09:39;0.40;;;0.40;;
33066;SDS011;19428;49.024;8.366;2022-08-19T14:12:05;0.50;;;0.50;;
33066;SDS011;19428;49.024;8.366;2022-08-19T14:14:31;0.90;;;0.90;;
33066;SDS011;19428;49.024;8.366;2022-08-19T14:16:57;0.85;;;0.85;;
33066;SDS011;19428;49.024;8.366;2022-08-19T14:19:23;0.60;;;0.60;;
33066;SDS011;19428;49.024;8.366;2022-08-19T14:21:48;0.65;;;0.65;;
33066;SDS011;19428;49.024;8.366;2022-08-19T14:24:14;0.88;;;0.88;;
33066;SDS011;19428;49.024;8.366;2022-08-19T14:26:40;0.60;;;0.60;;
33066;SDS011;19428;49.024;8.366;2022-08-19T14:29:05;0.40;;;0.40;;
33066;SDS011;19428;49.024;8.366;2022-08-19T14:31:31;0.60;;;0.60;;
33066;SDS011;19428;49.024;8.366;2022-08-19T14:33:56;0.50;;;0.50;;
33066;SDS011;19428;49.024;8.366;2022-08-19T14:36:22;0.60;;;0.60;;
33066;SDS011;19428;49.024;8.366;2022-08-19T14:38:48;1.48;;;1.38;;
33066;SDS011;19428;49.024;8.366;2022-08-19T14:41:17;0.50;;;0.50;;
33066;SDS011;19428;49.024;8.366;2022-08-19T14:43:49;0.50;;;0.50;;
33066;SDS011;19428;49.024;8.366;2022-08-19T14:46:17;0.50;;;0.50;;
33066;SDS011;19428;49.024;8.366;2022-08-19T14:48:45;1.13;;;1.02;;
33066;SDS011;19428;49.024;8.366;2022-08-19T14:51:11;0.88;;;0.88;;